sensor_id;sensor_type;location;lat;lon;timestamp;P1;durP1;ratioP1;P2;durP2;ratioP2
67554;SDS011;54385;53.516;49.456;2024-02-26T00:01:46;1.85;;;1.50;;
67554;SDS011;54385;53.516;49.456;2024-02-26T00:04:13;2.17;;;1.75;;
67554;SDS011;54385;53.516;49.456;2024-02-26T00:06:39;1.50;;;1.40;;
67554;SDS011;54385;53.516;49.456;2024-02-26T00:09:07;1.92;;;1.70;;
67554;SDS011;54385;53.516;49.456;2024-02-26T00:11:37;1.85;;;1.55;;
67554;SDS011;54385;53.516;49.456;2024-02-26T00:14:05;2.28;;;1.60;;
67554;SDS011;54385;53.516;49.456;2024-02-26T00:16:31;2.08;;;1.70;;
67554;SDS011;54385;53.516;49.456;2024-02-26T00:18:58;2.33;;;1.67;;
67554;SDS011;54385;53.516;49.456;2024-02-26T00:21:24;1.90;;;1.50;;
67554;SDS011;54385;53.516;49.456;2024-02-26T00:23:52;1.92;;;1.60;;
67554;SDS011;54385;53.516;49.456;2024-02-26T00:26:19;2.00;;;1.60;;
67554;SDS011;54385;53.516;49.456;2024-02-26T00:28:45;2.05;;;1.50;;
67554;SDS011;54385;53.516;49.456;2024-02-26T00:31:12;1.80;;;1.42;;
67554;SDS011;54385;53.516;49.456;2024-02-26T00:33:39;2.90;;;1.70;;
67554;SDS011;54385;53.516;49.456;2024-02-26T00:36:05;2.15;;;1.90;;
67554;SDS011;54385;53.516;49.456;2024-02-26T00:38:32;2.80;;;1.58;;
67554;SDS011;54385;53.516;49.456;2024-02-26T00:40:58;2.05;;;1.70;;
67554;SDS011;54385;53.516;49.456;2024-02-26T00:43:25;1.95;;;1.45;;
67554;SDS011;54385;53.516;49.456;2024-02-26T00:45:51;1.85;;;1.75;;
67554;SDS011;54385;53.516;49.456;2024-02-26T00:48:18;2.65;;;1.92;;
67554;SDS011;54385;53.516;49.456;2024-02-26T00:50:45;2.05;;;1.60;;
67554;SDS011;54385;53.516;49.456;2024-02-26T00:53:11;2.50;;;1.75;;
67554;SDS011;54385;53.516;49.456;2024-02-26T00:55:38;2.40;;;1.80;;
67554;SDS011;54385;53.516;49.456;2024-02-26T00:58:08;2.20;;;1.65;;
67554;SDS011;54385;53.516;49.456;2024-02-26T01:00:35;3.78;;;1.60;;
67554;SDS011;54385;53.516;49.456;2024-02-26T01:03:02;2.47;;;1.90;;
67554;SDS011;54385;53.516;49.456;2024-02-26T01:05:29;2.30;;;1.77;;
67554;SDS011;54385;53.516;49.456;2024-02-26T01:07:56;2.30;;;1.65;;
67554;SDS011;54385;53.516;49.456;2024-02-26T01:10:22;2.03;;;1.80;;
67554;SDS011;54385;53.516;49.456;2024-02-26T01:12:49;2.40;;;1.90;;
67554;SDS011;54385;53.516;49.456;2024-02-26T01:15:16;1.73;;;1.55;;
67554;SDS011;54385;53.516;49.456;2024-02-26T01:17:44;2.22;;;1.80;;
67554;SDS011;54385;53.516;49.456;2024-02-26T01:20:11;1.92;;;1.60;;
67554;SDS011;54385;53.516;49.456;2024-02-26T01:22:37;3.00;;;1.85;;
67554;SDS011;54385;53.516;49.456;2024-02-26T01:25:06;2.00;;;1.70;;
67554;SDS011;54385;53.516;49.456;2024-02-26T01:27:33;2.17;;;1.80;;
67554;SDS011;54385;53.516;49.456;2024-02-26T01:30:00;2.20;;;1.73;;
67554;SDS011;54385;53.516;49.456;2024-02-26T01:32:27;2.55;;;1.90;;
67554;SDS011;54385;53.516;49.456;2024-02-26T01:34:53;2.53;;;1.60;;
67554;SDS011;54385;53.516;49.456;2024-02-26T01:37:20;2.67;;;1.90;;
67554;SDS011;54385;53.516;49.456;2024-02-26T01:39:47;2.45;;;1.90;;
67554;SDS011;54385;53.516;49.456;2024-02-26T01:42:13;2.10;;;1.90;;
67554;SDS011;54385;53.516;49.456;2024-02-26T01:44:40;1.98;;;1.65;;
67554;SDS011;54385;53.516;49.456;2024-02-26T01:47:07;2.33;;;1.85;;
67554;SDS011;54385;53.516;49.456;2024-02-26T01:49:36;2.95;;;1.80;;
67554;SDS011;54385;53.516;49.456;2024-02-26T01:52:03;2.42;;;2.00;;
67554;SDS011;54385;53.516;49.456;2024-02-26T01:54:33;2.20;;;1.52;;
67554;SDS011;54385;53.516;49.456;2024-02-26T01:57:02;1.98;;;1.55;;
67554;SDS011;54385;53.516;49.456;2024-02-26T01:59:37;2.75;;;1.98;;
67554;SDS011;54385;53.516;49.456;2024-02-26T02:02:09;2.67;;;1.80;;
67554;SDS011;54385;53.516;49.456;2024-02-26T02:04:38;2.30;;;1.60;;
67554;SDS011;54385;53.516;49.456;2024-02-26T02:07:05;2.67;;;1.80;;
67554;SDS011;54385;53.516;49.456;2024-02-26T02:09:32;2.53;;;1.90;;
67554;SDS011;54385;53.516;49.456;2024-02-26T02:11:58;3.25;;;2.20;;
67554;SDS011;54385;53.516;49.456;2024-02-26T02:14:26;2.13;;;1.90;;
67554;SDS011;54385;53.516;49.456;2024-02-26T02:16:53;2.63;;;1.85;;
67554;SDS011;54385;53.516;49.456;2024-02-26T02:19:19;2.38;;;1.77;;
67554;SDS011;54385;53.516;49.456;2024-02-26T02:21:46;2.40;;;2.20;;
67554;SDS011;54385;53.516;49.456;2024-02-26T02:24:13;3.28;;;1.90;;
67554;SDS011;54385;53.516;49.456;2024-02-26T02:26:39;2.22;;;1.92;;
67554;SDS011;54385;53.516;49.456;2024-02-26T02:29:06;2.08;;;1.70;;
67554;SDS011;54385;53.516;49.456;2024-02-26T02:31:33;2.97;;;2.00;;
67554;SDS011;54385;53.516;49.456;2024-02-26T02:34:00;3.25;;;1.85;;
67554;SDS011;54385;53.516;49.456;2024-02-26T02:36:27;2.72;;;2.15;;
67554;SDS011;54385;53.516;49.456;2024-02-26T02:38:53;2.25;;;1.98;;
67554;SDS011;54385;53.516;49.456;2024-02-26T02:41:20;2.70;;;1.98;;
67554;SDS011;54385;53.516;49.456;2024-02-26T02:43:47;3.30;;;2.03;;
67554;SDS011;54385;53.516;49.456;2024-02-26T02:46:14;2.90;;;1.92;;
67554;SDS011;54385;53.516;49.456;2024-02-26T02:48:41;2.95;;;2.00;;
67554;SDS011;54385;53.516;49.456;2024-02-26T02:51:09;3.08;;;2.20;;
67554;SDS011;54385;53.516;49.456;2024-02-26T02:53:36;3.30;;;2.47;;
67554;SDS011;54385;53.516;49.456;2024-02-26T02:56:03;2.35;;;1.90;;
67554;SDS011;54385;53.516;49.456;2024-02-26T02:58:30;3.08;;;2.33;;
67554;SDS011;54385;53.516;49.456;2024-02-26T03:00:58;2.70;;;2.15;;
67554;SDS011;54385;53.516;49.456;2024-02-26T03:03:26;3.17;;;2.17;;
67554;SDS011;54385;53.516;49.456;2024-02-26T03:05:54;2.60;;;1.92;;
67554;SDS011;54385;53.516;49.456;2024-02-26T03:08:21;2.47;;;1.85;;
67554;SDS011;54385;53.516;49.456;2024-02-26T03:10:50;3.22;;;2.08;;
67554;SDS011;54385;53.516;49.456;2024-02-26T03:13:17;3.80;;;3.00;;
67554;SDS011;54385;53.516;49.456;2024-02-26T03:15:43;5.43;;;3.88;;
67554;SDS011;54385;53.516;49.456;2024-02-26T03:18:10;6.88;;;4.75;;
67554;SDS011;54385;53.516;49.456;2024-02-26T03:20:38;8.88;;;5.50;;
67554;SDS011;54385;53.516;49.456;2024-02-26T03:23:05;8.98;;;5.57;;
67554;SDS011;54385;53.516;49.456;2024-02-26T03:25:32;8.88;;;5.57;;
67554;SDS011;54385;53.516;49.456;2024-02-26T03:27:59;8.48;;;6.00;;
67554;SDS011;54385;53.516;49.456;2024-02-26T03:30:25;9.35;;;5.75;;
67554;SDS011;54385;53.516;49.456;2024-02-26T03:32:52;9.27;;;6.18;;
67554;SDS011;54385;53.516;49.456;2024-02-26T03:35:18;8.57;;;6.47;;
67554;SDS011;54385;53.516;49.456;2024-02-26T03:37:45;11.75;;;7.00;;
67554;SDS011;54385;53.516;49.456;2024-02-26T03:40:13;9.40;;;6.30;;
67554;SDS011;54385;53.516;49.456;2024-02-26T03:42:40;9.65;;;7.03;;
67554;SDS011;54385;53.516;49.456;2024-02-26T03:45:07;10.30;;;6.40;;
67554;SDS011;54385;53.516;49.456;2024-02-26T03:47:35;11.20;;;6.80;;
67554;SDS011;54385;53.516;49.456;2024-02-26T03:50:03;11.23;;;6.43;;
67554;SDS011;54385;53.516;49.456;2024-02-26T03:52:30;9.13;;;6.10;;
67554;SDS011;54385;53.516;49.456;2024-02-26T03:54:57;8.82;;;6.45;;
67554;SDS011;54385;53.516;49.456;2024-02-26T03:57:24;10.45;;;6.45;;
67554;SDS011;54385;53.516;49.456;2024-02-26T03:59:54;10.48;;;5.63;;
67554;SDS011;54385;53.516;49.456;2024-02-26T04:02:23;10.35;;;6.25;;
67554;SDS011;54385;53.516;49.456;2024-02-26T04:04:51;9.05;;;5.80;;
67554;SDS011;54385;53.516;49.456;2024-02-26T04:07:18;8.52;;;5.43;;
67554;SDS011;54385;53.516;49.456;2024-02-26T04:09:44;8.00;;;5.75;;
67554;SDS011;54385;53.516;49.456;2024-02-26T04:12:27;9.07;;;5.80;;
67554;SDS011;54385;53.516;49.456;2024-02-26T04:15:10;9.57;;;5.68;;
67554;SDS011;54385;53.516;49.456;2024-02-26T04:17:53;7.43;;;5.55;;
67554;SDS011;54385;53.516;49.456;2024-02-26T04:20:24;8.20;;;5.18;;
67554;SDS011;54385;53.516;49.456;2024-02-26T04:22:57;8.50;;;4.93;;
67554;SDS011;54385;53.516;49.456;2024-02-26T04:25:24;8.00;;;4.40;;
67554;SDS011;54385;53.516;49.456;2024-02-26T04:27:51;8.13;;;5.25;;
67554;SDS011;54385;53.516;49.456;2024-02-26T04:30:18;6.50;;;4.57;;
67554;SDS011;54385;53.516;49.456;2024-02-26T04:32:51;7.95;;;4.75;;
67554;SDS011;54385;53.516;49.456;2024-02-26T04:35:18;7.85;;;4.97;;
67554;SDS011;54385;53.516;49.456;2024-02-26T04:37:45;6.35;;;4.68;;
67554;SDS011;54385;53.516;49.456;2024-02-26T04:40:12;6.35;;;3.95;;
67554;SDS011;54385;53.516;49.456;2024-02-26T04:42:39;7.22;;;4.53;;
67554;SDS011;54385;53.516;49.456;2024-02-26T04:45:08;6.43;;;4.72;;
67554;SDS011;54385;53.516;49.456;2024-02-26T04:47:36;7.43;;;4.55;;
67554;SDS011;54385;53.516;49.456;2024-02-26T04:50:07;8.10;;;4.72;;
67554;SDS011;54385;53.516;49.456;2024-02-26T04:52:34;7.22;;;4.65;;
67554;SDS011;54385;53.516;49.456;2024-02-26T04:55:02;5.60;;;4.22;;
67554;SDS011;54385;53.516;49.456;2024-02-26T04:57:33;6.25;;;4.40;;
67554;SDS011;54385;53.516;49.456;2024-02-26T05:00:00;8.02;;;4.45;;
67554;SDS011;54385;53.516;49.456;2024-02-26T05:02:29;6.70;;;4.47;;
67554;SDS011;54385;53.516;49.456;2024-02-26T05:04:58;8.88;;;5.00;;
67554;SDS011;54385;53.516;49.456;2024-02-26T05:07:25;7.57;;;4.30;;
67554;SDS011;54385;53.516;49.456;2024-02-26T05:09:55;6.70;;;4.55;;
67554;SDS011;54385;53.516;49.456;2024-02-26T05:12:23;6.35;;;4.20;;
67554;SDS011;54385;53.516;49.456;2024-02-26T05:14:49;6.85;;;4.13;;
67554;SDS011;54385;53.516;49.456;2024-02-26T05:17:16;6.32;;;4.25;;
67554;SDS011;54385;53.516;49.456;2024-02-26T05:19:43;7.22;;;4.20;;
67554;SDS011;54385;53.516;49.456;2024-02-26T05:22:14;8.82;;;4.47;;
67554;SDS011;54385;53.516;49.456;2024-02-26T05:24:55;6.30;;;4.40;;
67554;SDS011;54385;53.516;49.456;2024-02-26T05:27:22;6.63;;;4.53;;
67554;SDS011;54385;53.516;49.456;2024-02-26T05:29:50;8.15;;;4.63;;
67554;SDS011;54385;53.516;49.456;2024-02-26T05:32:25;8.27;;;4.95;;
67554;SDS011;54385;53.516;49.456;2024-02-26T05:38:51;6.82;;;4.70;;
67554;SDS011;54385;53.516;49.456;2024-02-26T05:41:18;8.07;;;5.05;;
67554;SDS011;54385;53.516;49.456;2024-02-26T05:43:49;8.13;;;5.35;;
67554;SDS011;54385;53.516;49.456;2024-02-26T05:46:19;5.95;;;4.68;;
67554;SDS011;54385;53.516;49.456;2024-02-26T05:48:50;8.35;;;4.90;;
67554;SDS011;54385;53.516;49.456;2024-02-26T05:51:20;7.60;;;4.53;;
67554;SDS011;54385;53.516;49.456;2024-02-26T05:53:50;5.95;;;4.40;;
67554;SDS011;54385;53.516;49.456;2024-02-26T05:56:22;7.53;;;4.75;;
67554;SDS011;54385;53.516;49.456;2024-02-26T05:58:49;5.80;;;3.97;;
67554;SDS011;54385;53.516;49.456;2024-02-26T06:01:17;7.15;;;5.55;;
67554;SDS011;54385;53.516;49.456;2024-02-26T06:03:44;6.68;;;4.72;;
67554;SDS011;54385;53.516;49.456;2024-02-26T06:06:11;8.52;;;4.93;;
67554;SDS011;54385;53.516;49.456;2024-02-26T06:08:47;6.65;;;4.93;;
67554;SDS011;54385;53.516;49.456;2024-02-26T06:11:20;5.97;;;4.68;;
67554;SDS011;54385;53.516;49.456;2024-02-26T06:13:48;6.95;;;4.65;;
67554;SDS011;54385;53.516;49.456;2024-02-26T06:16:25;7.68;;;4.18;;
67554;SDS011;54385;53.516;49.456;2024-02-26T06:18:55;4.78;;;4.05;;
67554;SDS011;54385;53.516;49.456;2024-02-26T06:21:22;7.55;;;4.97;;
67554;SDS011;54385;53.516;49.456;2024-02-26T06:23:49;7.13;;;4.50;;
67554;SDS011;54385;53.516;49.456;2024-02-26T06:26:17;9.88;;;4.53;;
67554;SDS011;54385;53.516;49.456;2024-02-26T06:28:53;7.28;;;4.50;;
67554;SDS011;54385;53.516;49.456;2024-02-26T06:31:26;6.35;;;4.40;;
67554;SDS011;54385;53.516;49.456;2024-02-26T06:33:53;6.82;;;4.90;;
67554;SDS011;54385;53.516;49.456;2024-02-26T06:36:22;6.75;;;4.22;;
67554;SDS011;54385;53.516;49.456;2024-02-26T06:39:03;7.25;;;4.63;;
67554;SDS011;54385;53.516;49.456;2024-02-26T06:41:34;5.20;;;4.32;;
67554;SDS011;54385;53.516;49.456;2024-02-26T06:44:02;8.25;;;4.60;;
67554;SDS011;54385;53.516;49.456;2024-02-26T06:46:31;7.20;;;4.50;;
67554;SDS011;54385;53.516;49.456;2024-02-26T06:49:01;6.85;;;4.68;;
67554;SDS011;54385;53.516;49.456;2024-02-26T06:51:28;6.78;;;4.60;;
67554;SDS011;54385;53.516;49.456;2024-02-26T06:53:55;8.30;;;4.38;;
67554;SDS011;54385;53.516;49.456;2024-02-26T06:56:22;6.75;;;4.75;;
67554;SDS011;54385;53.516;49.456;2024-02-26T06:58:49;9.15;;;4.50;;
67554;SDS011;54385;53.516;49.456;2024-02-26T07:01:16;7.82;;;4.60;;
67554;SDS011;54385;53.516;49.456;2024-02-26T07:03:44;6.13;;;4.70;;
67554;SDS011;54385;53.516;49.456;2024-02-26T07:06:11;7.80;;;4.60;;
67554;SDS011;54385;53.516;49.456;2024-02-26T07:08:40;8.95;;;4.40;;
67554;SDS011;54385;53.516;49.456;2024-02-26T07:11:10;7.18;;;4.40;;
67554;SDS011;54385;53.516;49.456;2024-02-26T07:13:37;10.63;;;4.95;;
67554;SDS011;54385;53.516;49.456;2024-02-26T07:16:04;6.43;;;4.57;;
67554;SDS011;54385;53.516;49.456;2024-02-26T07:18:35;10.80;;;5.13;;
67554;SDS011;54385;53.516;49.456;2024-02-26T07:21:02;7.07;;;5.10;;
67554;SDS011;54385;53.516;49.456;2024-02-26T07:23:30;6.25;;;4.95;;
67554;SDS011;54385;53.516;49.456;2024-02-26T07:25:59;9.68;;;5.25;;
67554;SDS011;54385;53.516;49.456;2024-02-26T07:28:27;6.78;;;4.30;;
67554;SDS011;54385;53.516;49.456;2024-02-26T07:30:56;6.18;;;4.95;;
67554;SDS011;54385;53.516;49.456;2024-02-26T07:33:24;7.88;;;5.03;;
67554;SDS011;54385;53.516;49.456;2024-02-26T07:35:54;7.80;;;5.35;;
67554;SDS011;54385;53.516;49.456;2024-02-26T07:38:30;7.72;;;4.82;;
67554;SDS011;54385;53.516;49.456;2024-02-26T07:41:01;7.32;;;5.68;;
67554;SDS011;54385;53.516;49.456;2024-02-26T07:49:02;8.20;;;5.60;;
67554;SDS011;54385;53.516;49.456;2024-02-26T07:51:31;8.32;;;5.07;;
67554;SDS011;54385;53.516;49.456;2024-02-26T07:54:08;8.43;;;5.40;;
67554;SDS011;54385;53.516;49.456;2024-02-26T07:56:41;9.00;;;5.45;;
67554;SDS011;54385;53.516;49.456;2024-02-26T07:59:25;7.22;;;5.32;;
67554;SDS011;54385;53.516;49.456;2024-02-26T08:02:03;9.68;;;5.72;;
67554;SDS011;54385;53.516;49.456;2024-02-26T08:04:31;9.30;;;5.50;;
67554;SDS011;54385;53.516;49.456;2024-02-26T08:06:58;9.60;;;5.63;;
67554;SDS011;54385;53.516;49.456;2024-02-26T08:09:28;8.82;;;5.90;;
67554;SDS011;54385;53.516;49.456;2024-02-26T08:11:56;7.10;;;5.43;;
67554;SDS011;54385;53.516;49.456;2024-02-26T08:14:40;7.55;;;5.00;;
67554;SDS011;54385;53.516;49.456;2024-02-26T08:17:07;7.82;;;5.47;;
67554;SDS011;54385;53.516;49.456;2024-02-26T08:19:34;7.32;;;5.82;;
67554;SDS011;54385;53.516;49.456;2024-02-26T08:22:02;8.07;;;5.43;;
67554;SDS011;54385;53.516;49.456;2024-02-26T08:24:29;6.93;;;5.32;;
67554;SDS011;54385;53.516;49.456;2024-02-26T08:26:57;6.38;;;5.10;;
67554;SDS011;54385;53.516;49.456;2024-02-26T08:29:26;7.13;;;5.20;;
67554;SDS011;54385;53.516;49.456;2024-02-26T08:31:56;7.13;;;5.30;;
67554;SDS011;54385;53.516;49.456;2024-02-26T08:34:48;6.90;;;4.90;;
67554;SDS011;54385;53.516;49.456;2024-02-26T08:37:25;7.13;;;5.22;;
67554;SDS011;54385;53.516;49.456;2024-02-26T08:39:56;7.07;;;4.75;;
67554;SDS011;54385;53.516;49.456;2024-02-26T08:42:27;8.25;;;5.07;;
67554;SDS011;54385;53.516;49.456;2024-02-26T08:44:56;10.48;;;5.05;;
67554;SDS011;54385;53.516;49.456;2024-02-26T08:47:27;6.68;;;5.28;;
67554;SDS011;54385;53.516;49.456;2024-02-26T08:49:54;7.80;;;5.40;;
67554;SDS011;54385;53.516;49.456;2024-02-26T08:52:20;10.32;;;5.43;;
67554;SDS011;54385;53.516;49.456;2024-02-26T08:54:51;9.02;;;5.57;;
67554;SDS011;54385;53.516;49.456;2024-02-26T08:57:17;6.03;;;5.38;;
67554;SDS011;54385;53.516;49.456;2024-02-26T08:59:49;7.68;;;5.30;;
67554;SDS011;54385;53.516;49.456;2024-02-26T09:02:19;9.45;;;5.47;;
67554;SDS011;54385;53.516;49.456;2024-02-26T09:04:58;6.82;;;5.03;;
67554;SDS011;54385;53.516;49.456;2024-02-26T09:07:25;5.72;;;5.03;;
67554;SDS011;54385;53.516;49.456;2024-02-26T09:10:01;7.78;;;5.22;;
67554;SDS011;54385;53.516;49.456;2024-02-26T09:12:45;8.88;;;5.00;;
67554;SDS011;54385;53.516;49.456;2024-02-26T09:15:15;6.45;;;4.65;;
67554;SDS011;54385;53.516;49.456;2024-02-26T09:17:45;8.07;;;4.80;;
67554;SDS011;54385;53.516;49.456;2024-02-26T09:20:19;8.48;;;5.40;;
67554;SDS011;54385;53.516;49.456;2024-02-26T09:23:04;8.93;;;5.03;;
67554;SDS011;54385;53.516;49.456;2024-02-26T09:25:31;8.57;;;5.10;;
67554;SDS011;54385;53.516;49.456;2024-02-26T09:27:59;7.38;;;5.20;;
67554;SDS011;54385;53.516;49.456;2024-02-26T09:30:26;8.13;;;5.18;;
67554;SDS011;54385;53.516;49.456;2024-02-26T09:33:05;6.30;;;4.70;;
67554;SDS011;54385;53.516;49.456;2024-02-26T09:35:39;8.52;;;5.47;;
67554;SDS011;54385;53.516;49.456;2024-02-26T09:38:08;7.25;;;4.85;;
67554;SDS011;54385;53.516;49.456;2024-02-26T09:40:40;7.20;;;4.63;;
67554;SDS011;54385;53.516;49.456;2024-02-26T09:43:11;7.55;;;4.93;;
67554;SDS011;54385;53.516;49.456;2024-02-26T09:45:45;7.68;;;4.55;;
67554;SDS011;54385;53.516;49.456;2024-02-26T09:48:13;5.88;;;4.60;;
67554;SDS011;54385;53.516;49.456;2024-02-26T09:50:48;7.68;;;4.63;;
67554;SDS011;54385;53.516;49.456;2024-02-26T09:53:18;8.00;;;4.80;;
67554;SDS011;54385;53.516;49.456;2024-02-26T09:59:13;6.93;;;4.53;;
67554;SDS011;54385;53.516;49.456;2024-02-26T10:01:43;9.05;;;4.97;;
67554;SDS011;54385;53.516;49.456;2024-02-26T10:04:11;7.95;;;4.63;;
67554;SDS011;54385;53.516;49.456;2024-02-26T10:06:41;6.85;;;4.57;;
67554;SDS011;54385;53.516;49.456;2024-02-26T10:09:11;7.65;;;5.40;;
67554;SDS011;54385;53.516;49.456;2024-02-26T10:11:42;6.88;;;4.78;;
67554;SDS011;54385;53.516;49.456;2024-02-26T10:14:10;8.10;;;4.47;;
67554;SDS011;54385;53.516;49.456;2024-02-26T10:16:38;6.38;;;4.47;;
67554;SDS011;54385;53.516;49.456;2024-02-26T10:19:05;6.93;;;4.43;;
67554;SDS011;54385;53.516;49.456;2024-02-26T10:21:33;6.38;;;4.05;;
67554;SDS011;54385;53.516;49.456;2024-02-26T10:24:13;7.85;;;4.80;;
67554;SDS011;54385;53.516;49.456;2024-02-26T10:26:45;7.38;;;4.18;;
67554;SDS011;54385;53.516;49.456;2024-02-26T10:29:13;7.35;;;4.70;;
67554;SDS011;54385;53.516;49.456;2024-02-26T10:31:43;8.18;;;4.57;;
67554;SDS011;54385;53.516;49.456;2024-02-26T10:34:11;8.60;;;4.60;;
67554;SDS011;54385;53.516;49.456;2024-02-26T10:36:39;6.43;;;4.07;;
67554;SDS011;54385;53.516;49.456;2024-02-26T10:39:11;7.00;;;4.28;;
67554;SDS011;54385;53.516;49.456;2024-02-26T10:41:43;6.43;;;4.70;;
67554;SDS011;54385;53.516;49.456;2024-02-26T10:44:11;6.57;;;4.50;;
67554;SDS011;54385;53.516;49.456;2024-02-26T10:46:42;7.28;;;4.78;;
67554;SDS011;54385;53.516;49.456;2024-02-26T10:49:13;7.55;;;4.32;;
67554;SDS011;54385;53.516;49.456;2024-02-26T10:51:49;6.75;;;4.72;;
67554;SDS011;54385;53.516;49.456;2024-02-26T10:54:20;6.47;;;4.20;;
67554;SDS011;54385;53.516;49.456;2024-02-26T10:56:50;6.80;;;4.00;;
67554;SDS011;54385;53.516;49.456;2024-02-26T10:59:18;6.55;;;4.63;;
67554;SDS011;54385;53.516;49.456;2024-02-26T11:01:47;8.00;;;4.40;;
67554;SDS011;54385;53.516;49.456;2024-02-26T11:04:16;7.78;;;4.15;;
67554;SDS011;54385;53.516;49.456;2024-02-26T11:06:44;5.95;;;4.70;;
67554;SDS011;54385;53.516;49.456;2024-02-26T11:09:12;6.28;;;4.40;;
67554;SDS011;54385;53.516;49.456;2024-02-26T11:11:41;5.75;;;4.22;;
67554;SDS011;54385;53.516;49.456;2024-02-26T11:14:08;9.13;;;4.25;;
67554;SDS011;54385;53.516;49.456;2024-02-26T11:16:36;6.65;;;3.95;;
67554;SDS011;54385;53.516;49.456;2024-02-26T11:19:06;5.95;;;4.07;;
67554;SDS011;54385;53.516;49.456;2024-02-26T11:21:36;5.85;;;4.10;;
67554;SDS011;54385;53.516;49.456;2024-02-26T11:24:10;5.35;;;4.35;;
67554;SDS011;54385;53.516;49.456;2024-02-26T11:26:43;6.10;;;4.38;;
67554;SDS011;54385;53.516;49.456;2024-02-26T11:29:21;5.40;;;4.05;;
67554;SDS011;54385;53.516;49.456;2024-02-26T11:32:01;4.95;;;3.80;;
67554;SDS011;54385;53.516;49.456;2024-02-26T11:34:31;5.32;;;4.13;;
67554;SDS011;54385;53.516;49.456;2024-02-26T11:37:11;5.85;;;4.05;;
67554;SDS011;54385;53.516;49.456;2024-02-26T11:39:40;7.00;;;4.47;;
67554;SDS011;54385;53.516;49.456;2024-02-26T11:42:08;5.57;;;3.80;;
67554;SDS011;54385;53.516;49.456;2024-02-26T11:44:35;5.60;;;3.97;;
67554;SDS011;54385;53.516;49.456;2024-02-26T11:47:23;7.20;;;4.03;;
67554;SDS011;54385;53.516;49.456;2024-02-26T11:49:49;6.22;;;4.38;;
67554;SDS011;54385;53.516;49.456;2024-02-26T11:52:16;5.97;;;4.10;;
67554;SDS011;54385;53.516;49.456;2024-02-26T11:54:44;5.38;;;4.13;;
67554;SDS011;54385;53.516;49.456;2024-02-26T11:57:29;5.47;;;4.32;;
67554;SDS011;54385;53.516;49.456;2024-02-26T12:00:12;7.00;;;4.35;;
67554;SDS011;54385;53.516;49.456;2024-02-26T12:02:46;5.65;;;4.10;;
67554;SDS011;54385;53.516;49.456;2024-02-26T12:07:43;6.30;;;3.97;;
67554;SDS011;54385;53.516;49.456;2024-02-26T12:10:43;5.10;;;3.78;;
67554;SDS011;54385;53.516;49.456;2024-02-26T12:13:14;5.32;;;4.00;;
67554;SDS011;54385;53.516;49.456;2024-02-26T12:15:43;5.80;;;4.20;;
67554;SDS011;54385;53.516;49.456;2024-02-26T12:18:15;5.47;;;4.38;;
67554;SDS011;54385;53.516;49.456;2024-02-26T12:20:43;5.82;;;4.40;;
67554;SDS011;54385;53.516;49.456;2024-02-26T12:23:16;5.90;;;4.07;;
67554;SDS011;54385;53.516;49.456;2024-02-26T12:25:43;6.20;;;4.10;;
67554;SDS011;54385;53.516;49.456;2024-02-26T12:28:10;5.82;;;4.03;;
67554;SDS011;54385;53.516;49.456;2024-02-26T12:30:37;5.75;;;4.25;;
67554;SDS011;54385;53.516;49.456;2024-02-26T12:33:04;5.57;;;4.00;;
67554;SDS011;54385;53.516;49.456;2024-02-26T12:35:35;6.68;;;4.22;;
67554;SDS011;54385;53.516;49.456;2024-02-26T12:38:04;5.65;;;3.90;;
67554;SDS011;54385;53.516;49.456;2024-02-26T12:40:33;5.13;;;3.95;;
67554;SDS011;54385;53.516;49.456;2024-02-26T12:43:00;6.43;;;4.28;;
67554;SDS011;54385;53.516;49.456;2024-02-26T12:45:28;5.75;;;4.30;;
67554;SDS011;54385;53.516;49.456;2024-02-26T12:47:55;6.28;;;4.70;;
67554;SDS011;54385;53.516;49.456;2024-02-26T12:50:23;4.82;;;3.95;;
67554;SDS011;54385;53.516;49.456;2024-02-26T12:52:50;5.47;;;4.47;;
67554;SDS011;54385;53.516;49.456;2024-02-26T12:55:18;5.32;;;4.13;;
67554;SDS011;54385;53.516;49.456;2024-02-26T12:57:46;5.18;;;3.80;;
67554;SDS011;54385;53.516;49.456;2024-02-26T13:00:16;6.05;;;4.32;;
67554;SDS011;54385;53.516;49.456;2024-02-26T13:02:47;4.80;;;4.07;;
67554;SDS011;54385;53.516;49.456;2024-02-26T13:05:18;6.15;;;4.28;;
67554;SDS011;54385;53.516;49.456;2024-02-26T13:07:46;5.10;;;4.10;;
67554;SDS011;54385;53.516;49.456;2024-02-26T13:10:13;6.05;;;4.47;;
67554;SDS011;54385;53.516;49.456;2024-02-26T13:15:20;6.32;;;4.13;;
67554;SDS011;54385;53.516;49.456;2024-02-26T13:17:48;5.70;;;4.25;;
67554;SDS011;54385;53.516;49.456;2024-02-26T13:20:29;5.68;;;4.22;;
67554;SDS011;54385;53.516;49.456;2024-02-26T13:23:02;6.38;;;4.05;;
67554;SDS011;54385;53.516;49.456;2024-02-26T13:25:28;4.80;;;3.97;;
67554;SDS011;54385;53.516;49.456;2024-02-26T13:28:15;6.35;;;4.30;;
67554;SDS011;54385;53.516;49.456;2024-02-26T13:30:50;6.32;;;4.10;;
67554;SDS011;54385;53.516;49.456;2024-02-26T13:33:18;6.30;;;4.00;;
67554;SDS011;54385;53.516;49.456;2024-02-26T13:35:45;6.05;;;4.82;;
67554;SDS011;54385;53.516;49.456;2024-02-26T13:38:12;5.53;;;4.43;;
67554;SDS011;54385;53.516;49.456;2024-02-26T13:40:39;6.22;;;4.13;;
67554;SDS011;54385;53.516;49.456;2024-02-26T13:43:06;5.65;;;4.15;;
67554;SDS011;54385;53.516;49.456;2024-02-26T13:45:34;5.63;;;4.72;;
67554;SDS011;54385;53.516;49.456;2024-02-26T13:48:02;5.38;;;4.35;;
67554;SDS011;54385;53.516;49.456;2024-02-26T13:50:30;4.75;;;3.97;;
67554;SDS011;54385;53.516;49.456;2024-02-26T13:52:57;5.13;;;4.03;;
67554;SDS011;54385;53.516;49.456;2024-02-26T13:55:27;4.75;;;3.75;;
67554;SDS011;54385;53.516;49.456;2024-02-26T13:57:56;6.63;;;4.65;;
67554;SDS011;54385;53.516;49.456;2024-02-26T14:00:24;5.53;;;4.18;;
67554;SDS011;54385;53.516;49.456;2024-02-26T14:02:51;5.95;;;4.15;;
67554;SDS011;54385;53.516;49.456;2024-02-26T14:05:18;4.95;;;3.88;;
67554;SDS011;54385;53.516;49.456;2024-02-26T14:07:45;4.85;;;4.30;;
67554;SDS011;54385;53.516;49.456;2024-02-26T14:10:12;5.13;;;4.20;;
67554;SDS011;54385;53.516;49.456;2024-02-26T14:12:39;5.00;;;4.50;;
67554;SDS011;54385;53.516;49.456;2024-02-26T14:15:06;4.78;;;3.92;;
67554;SDS011;54385;53.516;49.456;2024-02-26T14:17:34;5.45;;;3.95;;
67554;SDS011;54385;53.516;49.456;2024-02-26T14:20:00;5.22;;;3.92;;
67554;SDS011;54385;53.516;49.456;2024-02-26T14:22:28;5.53;;;4.07;;
67554;SDS011;54385;53.516;49.456;2024-02-26T14:24:57;5.40;;;4.00;;
67554;SDS011;54385;53.516;49.456;2024-02-26T14:27:24;5.55;;;4.30;;
67554;SDS011;54385;53.516;49.456;2024-02-26T14:29:51;5.70;;;4.28;;
67554;SDS011;54385;53.516;49.456;2024-02-26T14:32:17;5.45;;;3.97;;
67554;SDS011;54385;53.516;49.456;2024-02-26T14:34:44;5.57;;;3.83;;
67554;SDS011;54385;53.516;49.456;2024-02-26T14:37:11;6.82;;;4.13;;
67554;SDS011;54385;53.516;49.456;2024-02-26T14:39:38;5.00;;;3.97;;
67554;SDS011;54385;53.516;49.456;2024-02-26T14:42:05;5.70;;;4.07;;
67554;SDS011;54385;53.516;49.456;2024-02-26T14:44:32;5.72;;;4.25;;
67554;SDS011;54385;53.516;49.456;2024-02-26T14:46:59;4.53;;;3.80;;
67554;SDS011;54385;53.516;49.456;2024-02-26T14:49:26;4.82;;;4.18;;
67554;SDS011;54385;53.516;49.456;2024-02-26T14:51:53;5.07;;;3.85;;
67554;SDS011;54385;53.516;49.456;2024-02-26T14:54:20;5.65;;;3.83;;
67554;SDS011;54385;53.516;49.456;2024-02-26T14:56:47;5.88;;;3.90;;
67554;SDS011;54385;53.516;49.456;2024-02-26T14:59:14;5.80;;;3.90;;
67554;SDS011;54385;53.516;49.456;2024-02-26T15:01:41;5.10;;;3.85;;
67554;SDS011;54385;53.516;49.456;2024-02-26T15:04:08;5.35;;;4.00;;